PAYAPAGS

Guest
Details From PAYA - YAKUTAT
To PAGS - GUSTAVUS
Flight Number -
Tags generated
Created
Modified
Stats Distance 142 nm / 264 km
Max Altitude 13,200 ft / 4,023 m
Waypoints 4
Social Downloads 1
Likes 0
Share VATSIM

Download

Looking for another format? Having issues loading an existing format? Contact us
Advertisement - Login to hide

Notes

Basic altitude profile: - Ascent Rate: 1320ft/min - Ascent Speed: 140kts - Cruise Altitude: 35000ft - Cruise Speed: 161kts - Descent Rate: 500ft/min - Descent Speed: 120kts Options: - Use NATs: no - Use PACOTS: no - Use low airways: yes - Use high airways: no

Route

PAYA HOLIE V440 CENTA PAGS

ID Type Via Altitude Latitude Longitude Leg Dist Tot Dist Heading (true) Name
O PAYA APT - 0 ft / 0 m 59.50325˚ -139.66125˚ - 0 nm - YAKUTAT
HOLIE FIX - 6,000 ft / 1,829 m 59.29691˚ -139.28581˚ 16 nm 16 nm 137° / 137° -
CENTA FIX V440 (AWY-LO) 13,200 ft / 4,023 m 59.00593˚ -138.80285˚ 22 nm 39 nm 139° / 140° -
O PAGS APT - 0 ft / 0 m 58.42469˚ -135.70896˚ 102 nm 142 nm 109° / 111° GUSTAVUS

Altitude Profile

Advertisement - Login to hide

PAYA

Details ICAO PAYA (YAK)
Name YAKUTAT
Region USA (Alaska)
Timezone America/Yakutat (UTC-8.0)
Stats Elevation 33 ft / 10 m (AMSL)
Location 59.503248° -139.661250°
Runways 2
Magnetic Variation 18.570° E

METAR

PAYA 210053Z AUTO 10010G19KT 8SM -RA BKN018 OVC022 10/08 A2970 RMK AO2 SLP057 P0005 T01000078 TSNO

Decode

TAF

PAYA 202336Z 2100/2124 10008KT 5SM -RA BR SCT019 OVC025 FM210200 11014KT 5SM -RA BR SCT015 OVC025 WS020/13035KT FM210800 12011KT 6SM -RA BR OVC018 FM211200 11012KT 4SM RA BR OVC025 WS020/13040KT AMD LTD TO CLD VIS AND WIND

Decode

Departure Runways

ID Width Length Bearing (true) Bearing (mag) Surface Threshold Offset Overrun Length
02 150 ft / 46 m 6,460 ft / 1,969 m 44.92° 26.35° Concrete 1,388 ft / 423 m 0 ft / 0 m
11 150 ft / 46 m 7,727 ft / 2,355 m 135.05° 116.48° Asphalt 0 ft / 0 m 0 ft / 0 m
20 150 ft / 46 m 6,460 ft / 1,969 m 224.95° 206.38° Concrete 0 ft / 0 m 0 ft / 0 m
29 150 ft / 46 m 7,727 ft / 2,355 m 315.08° 296.51° Asphalt 0 ft / 0 m 0 ft / 0 m

PAGS

Details ICAO PAGS (GST)
Name GUSTAVUS
Region USA (Alaska)
Timezone America/Juneau (UTC-8.0)
Stats Elevation 34 ft / 10 m (AMSL)
Location 58.424690° -135.708964°
Runways 2
Magnetic Variation 18.925° E

METAR

PAGS 210056Z AUTO 14014G19KT 10SM OVC040 12/07 A2982 RMK AO2 RAE13 SLP098 P0000 T01170072

Decode

TAF

PAGS 202336Z 2100/2124 12012KT P6SM -RA OVC050 WS020/14030KT FM211000 13012KT 5SM -RA BR BKN015 OVC030 WS020/14035KT AMD LTD TO CLD VIS AND WIND

Decode

Destination Runways

ID Width Length Bearing (true) Bearing (mag) Surface Threshold Offset Overrun Length
02 60 ft / 18 m 3,003 ft / 915 m 40.96° 22.04° Asphalt 0 ft / 0 m 0 ft / 0 m
11 150 ft / 46 m 6,704 ft / 2,044 m 135.06° 116.14° Asphalt 0 ft / 0 m 0 ft / 0 m
20 60 ft / 18 m 3,003 ft / 915 m 220.97° 202.05° Asphalt 0 ft / 0 m 0 ft / 0 m
29 150 ft / 46 m 6,704 ft / 2,044 m 315.08° 296.16° Asphalt 0 ft / 0 m 0 ft / 0 m